createdAt,value
2017-12-05T00:00:06.871Z,1015.83
2017-12-05T00:01:06.883Z,1015.88
2017-12-05T00:02:06.894Z,1015.91
2017-12-05T00:03:06.905Z,1015.86
2017-12-05T00:04:06.916Z,1015.85
2017-12-05T00:05:06.928Z,1015.83
2017-12-05T00:06:06.939Z,1015.85
2017-12-05T00:07:06.954Z,1015.83
2017-12-05T00:08:06.962Z,1015.91
2017-12-05T00:09:06.973Z,1015.83
2017-12-05T00:10:06.984Z,1015.83
2017-12-05T00:11:06.997Z,1015.85
2017-12-05T00:12:07.008Z,1015.89
2017-12-05T00:13:07.020Z,1015.9
2017-12-05T00:14:07.031Z,1015.92
2017-12-05T00:15:07.042Z,1015.92
2017-12-05T00:16:07.053Z,1015.91
2017-12-05T00:17:07.068Z,1015.89
2017-12-05T00:18:07.079Z,1015.89
2017-12-05T00:19:07.090Z,1015.89
2017-12-05T00:20:07.104Z,1015.92
2017-12-05T00:21:07.112Z,1015.88
2017-12-05T00:22:07.124Z,1015.86
2017-12-05T00:23:07.136Z,1015.88
2017-12-05T00:24:07.148Z,1015.84
2017-12-05T00:25:07.159Z,1015.86
2017-12-05T00:26:07.170Z,1015.83
2017-12-05T00:27:07.185Z,1015.8
2017-12-05T00:28:07.195Z,1015.79
2017-12-05T00:29:07.209Z,1015.82
2017-12-05T00:30:07.222Z,1015.83
2017-12-05T00:31:07.228Z,1015.82
2017-12-05T00:32:07.240Z,1015.87
2017-12-05T00:33:07.251Z,1015.78
2017-12-05T00:34:07.264Z,1015.81
2017-12-05T00:35:07.276Z,1015.82
2017-12-05T00:36:07.287Z,1015.8
2017-12-05T00:37:07.297Z,1015.84
2017-12-05T00:38:07.310Z,1015.84
2017-12-05T00:39:07.320Z,1015.84
2017-12-05T00:40:07.333Z,1015.86
2017-12-05T00:41:07.345Z,1015.82
2017-12-05T00:42:07.355Z,1015.85
2017-12-05T00:43:07.375Z,1015.88
2017-12-05T00:44:07.378Z,1015.89
2017-12-05T00:45:07.391Z,1015.87
2017-12-05T00:46:07.401Z,1015.83
2017-12-05T00:47:07.413Z,1015.81
2017-12-05T00:48:07.424Z,1015.83
2017-12-05T00:49:07.443Z,1015.81
2017-12-05T00:50:07.447Z,1015.82
2017-12-05T00:51:07.462Z,1015.86
2017-12-05T00:52:07.472Z,1015.85
2017-12-05T00:53:07.482Z,1015.82
2017-12-05T00:54:07.495Z,1015.85
2017-12-05T00:55:07.506Z,1015.84
2017-12-05T00:56:07.518Z,1015.81
2017-12-05T00:57:07.528Z,1015.8
2017-12-05T00:58:07.540Z,1015.8
2017-12-05T00:59:07.551Z,1015.8
2017-12-05T01:00:07.566Z,1015.82
2017-12-05T01:01:07.582Z,1015.83
2017-12-05T01:02:07.588Z,1015.83
2017-12-05T01:03:07.602Z,1015.86
2017-12-05T01:04:07.610Z,1015.9
2017-12-05T01:05:07.622Z,1015.89
2017-12-05T01:06:07.633Z,1015.87
2017-12-05T01:07:07.645Z,1015.85
2017-12-05T01:08:07.659Z,1015.88
2017-12-05T01:09:07.669Z,1015.9
2017-12-05T01:10:07.681Z,1015.89
2017-12-05T01:11:07.692Z,1015.9
2017-12-05T01:12:07.702Z,1015.96
2017-12-05T01:13:07.714Z,1015.94
2017-12-05T01:14:07.730Z,1015.97
2017-12-05T01:15:07.738Z,1015.94
2017-12-05T01:16:07.752Z,1015.97
2017-12-05T01:17:07.760Z,1015.92
2017-12-05T01:18:07.772Z,1015.92
2017-12-05T01:19:07.784Z,1015.92
2017-12-05T01:20:07.798Z,1015.92
2017-12-05T01:21:07.808Z,1015.9
2017-12-05T01:22:07.820Z,1015.91
2017-12-05T01:23:07.831Z,1015.91
2017-12-05T01:24:07.842Z,1015.86
2017-12-05T01:25:07.854Z,1015.92
2017-12-05T01:26:07.874Z,1015.95
2017-12-05T01:27:07.879Z,1015.94
2017-12-05T01:28:07.889Z,1015.93
2017-12-05T01:29:07.901Z,1015.94
2017-12-05T01:30:07.913Z,1015.88
2017-12-05T01:31:07.924Z,1015.91
2017-12-05T01:32:07.936Z,1015.93
2017-12-05T01:33:07.949Z,1015.94
2017-12-05T01:34:07.959Z,1015.9
2017-12-05T01:35:07.970Z,1015.89
2017-12-05T01:36:07.983Z,1015.86
2017-12-05T01:37:07.993Z,1015.9
2017-12-05T01:38:08.005Z,1015.86
2017-12-05T01:39:08.018Z,1015.89
2017-12-05T01:40:08.029Z,1015.9
2017-12-05T01:41:08.041Z,1015.85
2017-12-05T01:42:08.053Z,1015.86
2017-12-05T01:43:08.063Z,1015.83
2017-12-05T01:44:08.075Z,1015.83
2017-12-05T01:45:08.086Z,1015.84
2017-12-05T01:46:08.100Z,1015.84
2017-12-05T01:47:08.110Z,1015.81
2017-12-05T01:48:08.121Z,1015.8
2017-12-05T01:49:08.134Z,1015.81
2017-12-05T01:50:08.147Z,1015.79
2017-12-05T01:51:08.207Z,1015.79
2017-12-05T01:52:08.174Z,1015.76
2017-12-05T01:53:08.182Z,1015.74
2017-12-05T01:54:08.193Z,1015.74
2017-12-05T01:55:08.206Z,1015.72
2017-12-05T01:56:08.216Z,1015.72
2017-12-05T01:57:08.229Z,1015.77
2017-12-05T01:58:08.240Z,1015.7
2017-12-05T01:59:08.251Z,1015.7
2017-12-05T02:00:08.264Z,1015.67
2017-12-05T02:01:08.277Z,1015.7
2017-12-05T02:02:08.288Z,1015.68
2017-12-05T02:03:08.299Z,1015.67
2017-12-05T02:04:08.311Z,1015.71
2017-12-05T02:05:08.322Z,1015.71
2017-12-05T02:06:08.333Z,1015.7
2017-12-05T02:07:08.345Z,1015.75
2017-12-05T02:08:08.357Z,1015.69
2017-12-05T02:09:08.381Z,1015.73
2017-12-05T02:10:08.381Z,1015.75
2017-12-05T02:11:08.392Z,1015.76
2017-12-05T02:12:08.403Z,1015.77
2017-12-05T02:13:08.415Z,1015.79
2017-12-05T02:14:08.425Z,1015.8
2017-12-05T02:15:08.442Z,1015.8
2017-12-05T02:16:08.451Z,1015.81
2017-12-05T02:17:08.463Z,1015.82
2017-12-05T02:18:08.475Z,1015.78
2017-12-05T02:19:08.487Z,1015.8
2017-12-05T02:20:08.500Z,1015.82
2017-12-05T02:21:08.514Z,1015.82
2017-12-05T02:22:08.524Z,1015.82
2017-12-05T02:23:08.533Z,1015.77
2017-12-05T02:24:08.545Z,1015.71
2017-12-05T02:25:08.555Z,1015.8
2017-12-05T02:26:08.569Z,1015.71
2017-12-05T02:27:08.581Z,1015.65
2017-12-05T02:28:08.594Z,1015.63
2017-12-05T02:29:08.603Z,1015.65
2017-12-05T02:30:08.617Z,1015.56
2017-12-05T02:31:08.627Z,1015.64
2017-12-05T02:32:08.639Z,1015.57
2017-12-05T02:33:08.652Z,1015.59
2017-12-05T02:34:08.662Z,1015.55
2017-12-05T02:35:08.676Z,1015.55
2017-12-05T02:36:08.685Z,1015.52
2017-12-05T02:37:08.698Z,1015.5
2017-12-05T02:38:08.709Z,1015.54
2017-12-05T02:39:08.721Z,1015.5
2017-12-05T02:40:08.734Z,1015.51
2017-12-05T02:41:08.742Z,1015.48
2017-12-05T02:42:08.755Z,1015.52
2017-12-05T02:43:08.766Z,1015.5
2017-12-05T02:44:08.777Z,1015.54
2017-12-05T02:45:08.789Z,1015.58
2017-12-05T02:46:08.802Z,1015.54
2017-12-05T02:47:08.817Z,1015.57
2017-12-05T02:48:08.823Z,1015.52
2017-12-05T02:49:08.837Z,1015.53
2017-12-05T02:50:08.850Z,1015.47
2017-12-05T02:51:08.862Z,1015.48
2017-12-05T02:52:08.880Z,1015.5
2017-12-05T02:53:08.885Z,1015.48
2017-12-05T02:54:08.901Z,1015.45
2017-12-05T02:55:08.908Z,1015.47
2017-12-05T02:56:08.919Z,1015.43
2017-12-05T02:57:08.931Z,1015.39
2017-12-05T02:58:08.943Z,1015.42
2017-12-05T02:59:08.954Z,1015.36
2017-12-05T03:00:08.967Z,1015.42
2017-12-05T03:01:08.979Z,1015.4
2017-12-05T03:02:09.041Z,1015.38
2017-12-05T03:03:09.002Z,1015.38
2017-12-05T03:04:09.015Z,1015.41
2017-12-05T03:05:09.027Z,1015.36
2017-12-05T03:06:09.038Z,1015.38
2017-12-05T03:07:09.052Z,1015.34
2017-12-05T03:08:09.062Z,1015.32
2017-12-05T03:09:09.073Z,1015.38
2017-12-05T03:10:09.085Z,1015.3
2017-12-05T03:11:09.096Z,1015.35
2017-12-05T03:12:09.109Z,1015.33
2017-12-05T03:13:09.121Z,1015.36
2017-12-05T03:14:09.133Z,1015.34
2017-12-05T03:15:09.145Z,1015.3
2017-12-05T03:16:09.157Z,1015.32
2017-12-05T03:17:09.169Z,1015.36
2017-12-05T03:18:09.180Z,1015.35
2017-12-05T03:19:09.194Z,1015.36
2017-12-05T03:20:09.203Z,1015.34
2017-12-05T03:21:09.216Z,1015.34
2017-12-05T03:22:09.228Z,1015.33
2017-12-05T03:23:09.240Z,1015.34
2017-12-05T03:24:09.260Z,1015.32
2017-12-05T03:25:09.265Z,1015.31
2017-12-05T03:26:09.277Z,1015.28
2017-12-05T03:27:09.287Z,1015.29
2017-12-05T03:28:09.300Z,1015.31
2017-12-05T03:29:09.341Z,1015.22
2017-12-05T03:30:09.331Z,1015.27
2017-12-05T03:31:09.336Z,1015.26
2017-12-05T03:32:09.348Z,1015.3
2017-12-05T03:33:09.360Z,1015.25
2017-12-05T03:34:09.372Z,1015.3
2017-12-05T03:35:09.382Z,1015.28
2017-12-05T03:36:09.399Z,1015.26
2017-12-05T03:37:09.408Z,1015.27
2017-12-05T03:38:09.425Z,1015.28
2017-12-05T03:39:09.431Z,1015.27
2017-12-05T03:40:09.442Z,1015.19
2017-12-05T03:41:09.456Z,1015.25
2017-12-05T03:42:09.473Z,1015.25
2017-12-05T03:43:09.479Z,1015.24
2017-12-05T03:44:09.492Z,1015.24
2017-12-05T03:45:09.504Z,1015.24
2017-12-05T03:46:09.514Z,1015.23
2017-12-05T03:47:09.527Z,1015.23
2017-12-05T03:48:09.539Z,1015.24
2017-12-05T03:49:09.550Z,1015.26
2017-12-05T03:50:09.562Z,1015.26
2017-12-05T03:51:09.574Z,1015.27
2017-12-05T03:52:09.587Z,1015.3
2017-12-05T03:53:09.604Z,1015.31
2017-12-05T03:54:09.609Z,1015.37
2017-12-05T03:55:09.622Z,1015.37
2017-12-05T03:56:09.634Z,1015.37
2017-12-05T03:57:09.645Z,1015.37
2017-12-05T03:58:09.657Z,1015.43
2017-12-05T03:59:09.671Z,1015.41
2017-12-05T04:00:09.680Z,1015.39
2017-12-05T04:01:09.694Z,1015.4
2017-12-05T04:02:09.706Z,1015.44
2017-12-05T04:03:09.724Z,1015.43
2017-12-05T04:04:09.728Z,1015.46
2017-12-05T04:05:09.740Z,1015.44
2017-12-05T04:06:09.758Z,1015.43
2017-12-05T04:07:09.764Z,1015.39
2017-12-05T04:08:09.776Z,1015.45
2017-12-05T04:09:09.789Z,1015.43
2017-12-05T04:10:09.800Z,1015.4
2017-12-05T04:11:09.814Z,1015.42
2017-12-05T04:12:09.825Z,1015.4
2017-12-05T04:13:09.836Z,1015.42
2017-12-05T04:14:09.852Z,1015.43
2017-12-05T04:15:09.860Z,1015.42
2017-12-05T04:16:09.872Z,1015.39
2017-12-05T04:17:09.884Z,1015.41
2017-12-05T04:18:09.897Z,1015.4
2017-12-05T04:19:09.908Z,1015.43
2017-12-05T04:20:09.920Z,1015.41
2017-12-05T04:21:09.932Z,1015.39
2017-12-05T04:22:09.942Z,1015.44
2017-12-05T04:23:09.956Z,1015.43
2017-12-05T04:24:09.967Z,1015.43
2017-12-05T04:25:09.979Z,1015.49
2017-12-05T04:26:09.990Z,1015.49
2017-12-05T04:27:10.004Z,1015.48
2017-12-05T04:28:10.040Z,1015.5
2017-12-05T04:29:10.027Z,1015.48
2017-12-05T04:30:10.039Z,1015.47
2017-12-05T04:31:10.051Z,1015.43
2017-12-05T04:32:10.065Z,1015.46
2017-12-05T04:33:10.074Z,1015.48
2017-12-05T04:34:10.086Z,1015.48
2017-12-05T04:35:10.099Z,1015.47
2017-12-05T04:36:10.111Z,1015.48
2017-12-05T04:37:10.122Z,1015.5
2017-12-05T04:38:10.134Z,1015.46
2017-12-05T04:39:10.147Z,1015.51
2017-12-05T04:40:10.159Z,1015.53
2017-12-05T04:41:10.175Z,1015.53
2017-12-05T04:42:10.182Z,1015.55
2017-12-05T04:43:10.196Z,1015.54
2017-12-05T04:44:10.206Z,1015.54
2017-12-05T04:45:10.218Z,1015.5
2017-12-05T04:46:10.230Z,1015.56
2017-12-05T04:47:10.249Z,1015.48
2017-12-05T04:48:10.253Z,1015.53
2017-12-05T04:49:10.266Z,1015.52
2017-12-05T04:50:10.279Z,1015.52
2017-12-05T04:51:10.290Z,1015.54
2017-12-05T04:52:10.300Z,1015.54
2017-12-05T04:53:10.313Z,1015.52
2017-12-05T04:54:10.326Z,1015.53
2017-12-05T04:55:10.337Z,1015.56
2017-12-05T04:56:10.352Z,1015.54
2017-12-05T04:57:10.362Z,1015.52
2017-12-05T04:58:10.374Z,1015.5
2017-12-05T04:59:10.390Z,1015.51
2017-12-05T05:00:10.397Z,1015.53
2017-12-05T05:01:10.410Z,1015.5
2017-12-05T05:02:10.422Z,1015.46
2017-12-05T05:03:10.434Z,1015.42
2017-12-05T05:04:10.446Z,1015.51
2017-12-05T05:05:10.459Z,1015.47
2017-12-05T05:06:10.494Z,1015.5
2017-12-05T05:07:10.485Z,1015.54
2017-12-05T05:08:10.494Z,1015.56
2017-12-05T05:09:10.507Z,1015.57
2017-12-05T05:10:10.535Z,1015.54
2017-12-05T05:11:10.532Z,1015.56
2017-12-05T05:12:10.542Z,1015.51
2017-12-05T05:13:10.553Z,1015.55
2017-12-05T05:14:10.597Z,1015.61
2017-12-05T05:15:10.578Z,1015.59
2017-12-05T05:16:10.591Z,1015.6
2017-12-05T05:17:10.602Z,1015.63
2017-12-05T05:18:10.616Z,1015.67
2017-12-05T05:19:10.627Z,1015.64
2017-12-05T05:20:10.639Z,1015.64
2017-12-05T05:21:10.650Z,1015.68
2017-12-05T05:22:10.662Z,1015.68
2017-12-05T05:23:10.674Z,1015.7
2017-12-05T05:24:10.686Z,1015.67
2017-12-05T05:25:10.699Z,1015.67
2017-12-05T05:26:10.714Z,1015.68
2017-12-05T05:27:10.723Z,1015.66
2017-12-05T05:28:10.736Z,1015.65
2017-12-05T05:29:10.746Z,1015.61
2017-12-05T05:30:10.761Z,1015.63
2017-12-05T05:31:10.772Z,1015.68
2017-12-05T05:32:10.783Z,1015.66
2017-12-05T05:33:10.795Z,1015.66
2017-12-05T05:34:10.820Z,1015.63
2017-12-05T05:35:10.820Z,1015.59
2017-12-05T05:36:10.832Z,1015.7
2017-12-05T05:37:10.842Z,1015.69
2017-12-05T05:38:10.855Z,1015.65
2017-12-05T05:39:10.866Z,1015.6
2017-12-05T05:40:10.878Z,1015.65
2017-12-05T05:41:10.893Z,1015.66
2017-12-05T05:42:10.902Z,1015.68
2017-12-05T05:43:10.915Z,1015.69
2017-12-05T05:44:10.927Z,1015.75
2017-12-05T05:45:10.939Z,1015.7
2017-12-05T05:46:10.951Z,1015.69
2017-12-05T05:47:10.962Z,1015.73
2017-12-05T05:48:10.977Z,1015.73
2017-12-05T05:49:10.989Z,1015.74
2017-12-05T05:50:10.998Z,1015.71
2017-12-05T05:51:11.011Z,1015.76
2017-12-05T05:52:11.024Z,1015.72
2017-12-05T05:53:11.035Z,1015.73
2017-12-05T05:54:11.047Z,1015.72
2017-12-05T05:55:11.060Z,1015.77
2017-12-05T05:56:11.072Z,1015.77
2017-12-05T05:57:11.083Z,1015.75
2017-12-05T05:58:11.095Z,1015.79
2017-12-05T05:59:11.111Z,1015.77
2017-12-05T06:00:11.120Z,1015.8
2017-12-05T06:01:11.131Z,1015.79
2017-12-05T06:02:11.145Z,1015.85
2017-12-05T06:03:11.156Z,1015.84
2017-12-05T06:04:11.169Z,1015.8
2017-12-05T06:05:11.179Z,1015.85
2017-12-05T06:06:11.193Z,1015.83
2017-12-05T06:07:11.204Z,1015.81
2017-12-05T06:08:11.229Z,1015.8
2017-12-05T06:09:11.240Z,1015.82
2017-12-05T06:10:11.244Z,1015.83
2017-12-05T06:11:11.252Z,1015.84
2017-12-05T06:12:11.265Z,1015.85
2017-12-05T06:13:11.283Z,1015.88
2017-12-05T06:14:11.289Z,1015.86
2017-12-05T06:15:11.301Z,1015.89
2017-12-05T06:16:11.324Z,1015.83
2017-12-05T06:17:11.325Z,1015.89
2017-12-05T06:18:11.337Z,1015.85
2017-12-05T06:19:11.350Z,1015.83
2017-12-05T06:20:11.360Z,1015.85
2017-12-05T06:21:11.373Z,1015.9
2017-12-05T06:22:11.386Z,1015.9
2017-12-05T06:23:11.397Z,1015.91
2017-12-05T06:24:11.409Z,1015.94
2017-12-05T06:25:11.422Z,1015.9
2017-12-05T06:26:11.436Z,1015.94
2017-12-05T06:27:11.446Z,1015.89
2017-12-05T06:28:11.458Z,1015.96
2017-12-05T06:29:11.470Z,1015.94
2017-12-05T06:30:11.482Z,1015.99
2017-12-05T06:31:11.494Z,1016
2017-12-05T06:32:11.506Z,1015.96
2017-12-05T06:33:11.520Z,1015.95
2017-12-05T06:34:11.533Z,1015.99
2017-12-05T06:35:11.542Z,1015.99
2017-12-05T06:36:11.555Z,1015.98
2017-12-05T06:37:11.568Z,1016.01
2017-12-05T06:38:11.580Z,1016.05
2017-12-05T06:39:11.593Z,1016.06
2017-12-05T06:40:11.605Z,1016
2017-12-05T06:41:11.616Z,1016.04
2017-12-05T06:42:11.628Z,1016.02
2017-12-05T06:43:11.643Z,1015.98
2017-12-05T06:44:11.653Z,1016.02
2017-12-05T06:45:11.667Z,1016.03
2017-12-05T06:46:11.678Z,1016.04
2017-12-05T06:47:11.690Z,1016.06
2017-12-05T06:48:11.701Z,1016.1
2017-12-05T06:49:11.715Z,1016.09
2017-12-05T06:50:11.728Z,1016.05
2017-12-05T06:51:11.739Z,1016.09
2017-12-05T06:52:11.751Z,1016.1
2017-12-05T06:53:11.763Z,1016.07
2017-12-05T06:54:11.775Z,1016.17
2017-12-05T06:55:11.787Z,1016.16
2017-12-05T06:56:11.800Z,1016.21
2017-12-05T06:57:11.811Z,1016.19
2017-12-05T06:58:11.824Z,1016.2
2017-12-05T06:59:11.835Z,1016.25
2017-12-05T07:00:11.847Z,1016.3
2017-12-05T07:01:11.862Z,1016.27
2017-12-05T07:02:11.872Z,1016.3
2017-12-05T07:03:11.886Z,1016.36
2017-12-05T07:04:11.897Z,1016.35
2017-12-05T07:05:11.910Z,1016.36
2017-12-05T07:06:11.922Z,1016.38
2017-12-05T07:07:11.933Z,1016.38
2017-12-05T07:08:11.946Z,1016.38
2017-12-05T07:09:11.958Z,1016.42
2017-12-05T07:10:11.976Z,1016.41
2017-12-05T07:11:11.982Z,1016.44
2017-12-05T07:12:12.000Z,1016.44
2017-12-05T07:13:12.007Z,1016.43
2017-12-05T07:14:12.020Z,1016.47
2017-12-05T07:15:12.032Z,1016.48
2017-12-05T07:16:12.043Z,1016.43
2017-12-05T07:17:12.056Z,1016.44
2017-12-05T07:18:12.066Z,1016.48
2017-12-05T07:19:12.080Z,1016.53
2017-12-05T07:20:12.092Z,1016.55
2017-12-05T07:21:12.108Z,1016.49
2017-12-05T07:22:12.116Z,1016.49
2017-12-05T07:23:12.178Z,1016.55
2017-12-05T07:24:12.144Z,1016.56
2017-12-05T07:25:12.154Z,1016.55
2017-12-05T07:26:12.165Z,1016.5
2017-12-05T07:27:12.177Z,1016.51
2017-12-05T07:28:12.196Z,1016.52
2017-12-05T07:29:12.202Z,1016.63
2017-12-05T07:30:12.217Z,1016.61
2017-12-05T07:31:12.229Z,1016.61
2017-12-05T07:32:12.238Z,1016.66
2017-12-05T07:33:12.250Z,1016.59
2017-12-05T07:34:12.263Z,1016.67
2017-12-05T07:35:12.276Z,1016.71
2017-12-05T07:36:12.287Z,1016.67
2017-12-05T07:37:12.303Z,1016.74
2017-12-05T07:38:12.312Z,1016.7
2017-12-05T07:39:12.326Z,1016.75
2017-12-05T07:40:12.337Z,1016.69
2017-12-05T07:41:12.350Z,1016.79
2017-12-05T07:42:12.362Z,1016.73
2017-12-05T07:43:12.373Z,1016.77
2017-12-05T07:44:12.395Z,1016.9
2017-12-05T07:45:12.398Z,1016.88
2017-12-05T07:46:12.410Z,1016.83
2017-12-05T07:47:12.422Z,1016.82
2017-12-05T07:48:12.435Z,1016.91
2017-12-05T07:49:12.448Z,1016.94
2017-12-05T07:50:12.460Z,1016.97
2017-12-05T07:51:12.472Z,1016.97
2017-12-05T07:52:12.485Z,1017.04
2017-12-05T07:53:12.497Z,1016.98
2017-12-05T07:54:12.552Z,1017
2017-12-05T07:55:12.522Z,1017.06
2017-12-05T07:56:12.534Z,1017.08
2017-12-05T07:57:12.547Z,1017.08
2017-12-05T07:58:12.558Z,1017.11
2017-12-05T07:59:12.571Z,1017.08
2017-12-05T08:00:12.586Z,1017.11
2017-12-05T08:01:12.596Z,1017.1
2017-12-05T08:02:12.608Z,1017.19
2017-12-05T08:03:12.620Z,1017.11
2017-12-05T08:04:12.638Z,1017.12
2017-12-05T08:05:12.644Z,1017.09
2017-12-05T08:06:12.657Z,1017.11
2017-12-05T08:07:12.669Z,1017.15
2017-12-05T08:08:12.683Z,1017.14
2017-12-05T08:09:12.713Z,1017.16
2017-12-05T08:10:12.708Z,1017.15
2017-12-05T08:11:12.719Z,1017.13
2017-12-05T08:12:12.738Z,1017.17
2017-12-05T08:13:12.746Z,1017.14
2017-12-05T08:14:12.759Z,1017.14
2017-12-05T08:15:12.770Z,1017.09
2017-12-05T08:16:12.782Z,1017.16
2017-12-05T08:17:12.795Z,1017.2
2017-12-05T08:18:12.807Z,1017.2
2017-12-05T08:19:12.819Z,1017.14
2017-12-05T08:20:12.833Z,1017.17
2017-12-05T08:21:12.845Z,1017.16
2017-12-05T08:22:12.864Z,1017.18
2017-12-05T08:23:12.869Z,1017.17
2017-12-05T08:24:12.881Z,1017.19
2017-12-05T08:25:12.895Z,1017.2
2017-12-05T08:26:12.907Z,1017.21
2017-12-05T08:27:12.918Z,1017.26
2017-12-05T08:28:12.932Z,1017.23
2017-12-05T08:29:12.944Z,1017.23
2017-12-05T08:30:12.956Z,1017.24
2017-12-05T08:31:12.968Z,1017.28
2017-12-05T08:32:12.983Z,1017.29
2017-12-05T08:33:12.995Z,1017.34
2017-12-05T08:34:13.008Z,1017.28
2017-12-05T08:35:13.027Z,1017.37
2017-12-05T08:36:13.041Z,1017.3
2017-12-05T08:37:13.045Z,1017.29
2017-12-05T08:38:13.057Z,1017.35
2017-12-05T08:39:13.073Z,1017.37
2017-12-05T08:40:13.083Z,1017.33
2017-12-05T08:41:13.095Z,1017.35
2017-12-05T08:42:13.135Z,1017.42
2017-12-05T08:43:13.120Z,1017.35
2017-12-05T08:44:13.133Z,1017.4
2017-12-05T08:45:13.144Z,1017.37
2017-12-05T08:46:13.156Z,1017.37
2017-12-05T08:47:13.171Z,1017.39
2017-12-05T08:48:13.183Z,1017.38
2017-12-05T08:49:13.194Z,1017.38
2017-12-05T08:50:13.207Z,1017.38
2017-12-05T08:51:13.220Z,1017.39
2017-12-05T08:52:13.234Z,1017.39
2017-12-05T08:53:13.247Z,1017.43
2017-12-05T08:54:13.257Z,1017.41
2017-12-05T08:55:13.270Z,1017.5
2017-12-05T08:56:13.282Z,1017.48
2017-12-05T08:57:13.295Z,1017.5
2017-12-05T08:58:13.307Z,1017.46
2017-12-05T08:59:13.320Z,1017.5
2017-12-05T09:00:13.341Z,1017.52
2017-12-05T09:01:13.347Z,1017.58
2017-12-05T09:02:13.358Z,1017.57
2017-12-05T09:03:13.371Z,1017.54
2017-12-05T09:04:13.383Z,1017.55
2017-12-05T09:05:13.395Z,1017.54
2017-12-05T09:06:13.410Z,1017.52
2017-12-05T09:07:13.421Z,1017.58
2017-12-05T09:08:13.433Z,1017.5
2017-12-05T09:09:13.447Z,1017.61
2017-12-05T09:10:13.459Z,1017.52
2017-12-05T09:11:13.473Z,1017.55
2017-12-05T09:12:13.497Z,1017.54
2017-12-05T09:13:13.502Z,1017.51
2017-12-05T09:14:13.512Z,1017.5
2017-12-05T09:15:13.522Z,1017.5
2017-12-05T09:16:13.536Z,1017.51
2017-12-05T09:17:13.548Z,1017.55
2017-12-05T09:18:13.560Z,1017.53
2017-12-05T09:19:13.574Z,1017.56
2017-12-05T09:20:13.588Z,1017.56
2017-12-05T09:21:13.602Z,1017.55
2017-12-05T09:22:13.612Z,1017.53
2017-12-05T09:23:13.625Z,1017.48
2017-12-05T09:24:13.640Z,1017.52
2017-12-05T09:25:13.651Z,1017.53
2017-12-05T09:26:13.663Z,1017.5
2017-12-05T09:27:13.678Z,1017.49
2017-12-05T09:28:13.690Z,1017.52
2017-12-05T09:29:13.702Z,1017.51
2017-12-05T09:30:13.715Z,1017.54
2017-12-05T09:31:13.730Z,1017.54
2017-12-05T09:32:13.741Z,1017.42
2017-12-05T09:33:13.753Z,1017.52
2017-12-05T09:34:13.767Z,1017.55
2017-12-05T09:35:13.780Z,1017.56
2017-12-05T09:36:13.793Z,1017.57
2017-12-05T09:37:13.805Z,1017.56
2017-12-05T09:38:13.830Z,1017.55
2017-12-05T09:39:13.837Z,1017.59
2017-12-05T09:40:13.848Z,1017.61
2017-12-05T09:41:13.862Z,1017.6
2017-12-05T09:42:13.870Z,1017.62
2017-12-05T09:43:13.884Z,1017.6
2017-12-05T09:44:13.896Z,1017.66
2017-12-05T09:45:13.910Z,1017.62
2017-12-05T09:46:13.926Z,1017.65
2017-12-05T09:47:13.936Z,1017.68
2017-12-05T09:48:13.950Z,1017.7
2017-12-05T09:49:13.963Z,1017.68
2017-12-05T09:50:13.979Z,1017.69
2017-12-05T09:51:13.989Z,1017.68
2017-12-05T09:52:14.004Z,1017.69
2017-12-05T09:53:14.015Z,1017.67
2017-12-05T09:54:14.029Z,1017.64
2017-12-05T09:55:14.047Z,1017.65
2017-12-05T09:56:14.055Z,1017.61
2017-12-05T09:57:14.067Z,1017.62
2017-12-05T09:58:14.085Z,1017.64
2017-12-05T09:59:14.093Z,1017.61
2017-12-05T10:00:14.107Z,1017.59
2017-12-05T10:01:14.121Z,1017.59
2017-12-05T10:02:14.134Z,1017.57
2017-12-05T10:03:14.146Z,1017.53
2017-12-05T10:04:14.159Z,1017.59
2017-12-05T10:05:14.173Z,1017.57
2017-12-05T10:06:14.185Z,1017.55
2017-12-05T10:07:14.199Z,1017.52
2017-12-05T10:08:14.212Z,1017.53
2017-12-05T10:09:14.224Z,1017.5
2017-12-05T10:10:14.240Z,1017.49
2017-12-05T10:11:14.251Z,1017.48
2017-12-05T10:12:14.265Z,1017.46
2017-12-05T10:13:14.279Z,1017.47
2017-12-05T10:14:14.294Z,1017.51
2017-12-05T10:15:14.304Z,1017.52
2017-12-05T10:16:14.318Z,1017.5
2017-12-05T10:17:14.333Z,1017.51
2017-12-05T10:18:14.343Z,1017.55
2017-12-05T10:19:14.357Z,1017.48
2017-12-05T10:20:14.370Z,1017.51
2017-12-05T10:21:14.383Z,1017.43
2017-12-05T10:22:14.397Z,1017.44
2017-12-05T10:23:14.410Z,1017.33
2017-12-05T10:24:14.422Z,1017.42
2017-12-05T10:25:14.438Z,1017.4
2017-12-05T10:26:14.450Z,1017.4
2017-12-05T10:27:14.464Z,1017.4
2017-12-05T10:28:14.476Z,1017.39
2017-12-05T10:29:14.490Z,1017.41
2017-12-05T10:30:14.503Z,1017.4
2017-12-05T10:31:14.516Z,1017.35
2017-12-05T10:32:14.529Z,1017.41
2017-12-05T10:33:14.543Z,1017.42
2017-12-05T10:34:14.558Z,1017.47
2017-12-05T10:35:14.569Z,1017.45
2017-12-05T10:36:14.583Z,1017.5
2017-12-05T10:37:14.598Z,1017.53
2017-12-05T10:38:14.611Z,1017.5
2017-12-05T10:39:14.623Z,1017.52
2017-12-05T10:40:14.637Z,1017.52
2017-12-05T10:41:14.650Z,1017.5
2017-12-05T10:42:14.662Z,1017.41
2017-12-05T10:43:14.676Z,1017.49
2017-12-05T10:44:14.699Z,1017.54
2017-12-05T10:45:14.763Z,1017.56
2017-12-05T10:46:14.717Z,1017.51
2017-12-05T10:47:14.730Z,1017.47
2017-12-05T10:48:14.744Z,1017.48
2017-12-05T10:49:14.757Z,1017.42
2017-12-05T10:50:14.778Z,1017.41
2017-12-05T10:51:14.784Z,1017.42
2017-12-05T10:52:14.797Z,1017.41
2017-12-05T10:53:14.810Z,1017.39
2017-12-05T10:54:14.824Z,1017.43
2017-12-05T10:55:14.838Z,1017.43
2017-12-05T10:56:14.855Z,1017.45
2017-12-05T10:57:14.864Z,1017.43
2017-12-05T10:58:14.877Z,1017.48
2017-12-05T10:59:14.891Z,1017.48
2017-12-05T11:00:14.915Z,1017.47
2017-12-05T11:01:14.920Z,1017.45
2017-12-05T11:02:14.936Z,1017.48
2017-12-05T11:03:14.947Z,1017.55
2017-12-05T11:04:14.959Z,1017.51
2017-12-05T11:05:14.973Z,1017.46
2017-12-05T11:06:14.985Z,1017.41
2017-12-05T11:07:15.001Z,1017.46
2017-12-05T11:08:15.011Z,1017.51
2017-12-05T11:09:15.026Z,1017.56
2017-12-05T11:10:15.040Z,1017.57
2017-12-05T11:11:15.053Z,1017.51
2017-12-05T11:12:15.067Z,1017.52
2017-12-05T11:13:15.080Z,1017.47
2017-12-05T11:14:15.093Z,1017.45
2017-12-05T11:15:15.106Z,1017.5
2017-12-05T11:16:15.168Z,1017.52
2017-12-05T11:17:15.134Z,1017.51
2017-12-05T11:18:15.147Z,1017.5
2017-12-05T11:19:15.160Z,1017.5
2017-12-05T11:20:15.174Z,1017.5
2017-12-05T11:21:15.190Z,1017.48
2017-12-05T11:22:15.202Z,1017.43
2017-12-05T11:23:15.217Z,1017.42
2017-12-05T11:24:15.228Z,1017.44
2017-12-05T11:25:15.242Z,1017.48
2017-12-05T11:26:15.259Z,1017.38
2017-12-05T11:27:15.269Z,1017.45
2017-12-05T11:28:15.283Z,1017.38
2017-12-05T11:29:15.297Z,1017.38
2017-12-05T11:30:15.313Z,1017.33
2017-12-05T11:31:15.323Z,1017.37
2017-12-05T11:32:15.339Z,1017.42
2017-12-05T11:33:15.350Z,1017.43
2017-12-05T11:34:15.364Z,1017.39
2017-12-05T11:35:15.377Z,1017.35
2017-12-05T11:36:15.390Z,1017.39
2017-12-05T11:37:15.403Z,1017.38
2017-12-05T11:38:15.421Z,1017.37
2017-12-05T11:39:15.431Z,1017.39
2017-12-05T11:40:15.445Z,1017.36
2017-12-05T11:41:15.457Z,1017.37
2017-12-05T11:42:15.471Z,1017.32
2017-12-05T11:43:15.484Z,1017.3
2017-12-05T11:44:15.499Z,1017.29
2017-12-05T11:45:15.511Z,1017.26
2017-12-05T11:46:15.526Z,1017.26
2017-12-05T11:47:15.538Z,1017.21
2017-12-05T11:48:15.551Z,1017.2
2017-12-05T11:49:15.565Z,1017.23
2017-12-05T11:50:15.584Z,1017.19
2017-12-05T11:51:15.594Z,1017.26
2017-12-05T11:52:15.605Z,1017.24
2017-12-05T11:53:15.619Z,1017.2
2017-12-05T11:54:15.633Z,1017.22
2017-12-05T11:55:15.647Z,1017.23
2017-12-05T11:56:15.660Z,1017.24
2017-12-05T11:57:15.673Z,1017.09
2017-12-05T11:58:15.687Z,1017.09
2017-12-05T11:59:15.700Z,1017.13
2017-12-05T12:00:15.713Z,1017.18
2017-12-05T12:01:15.733Z,1017.18
2017-12-05T12:02:15.741Z,1017.2
2017-12-05T12:03:15.754Z,1017.15
2017-12-05T12:04:15.767Z,1017.26
2017-12-05T12:05:15.791Z,1017.32
2017-12-05T12:06:15.794Z,1017.22
2017-12-05T12:07:15.808Z,1017.25
2017-12-05T12:08:15.822Z,1017.22